Ana Sayfa
METAR-TAF:

METAR-TAF

Havaalanları :

Groote Eylandt, Avustralya

Enlem: 13-58-30S, Boylam: 136-27-36E, yükseklik: 16 m

Güncel hava durumu gözlemi

Rapor saat 15:00 UTC de 27 dakika önce yapıldı.
Rüzgar güneydoğudan 3 kt
Sıcaklık 19°C
Nem 88%
Basınç 1017 hPa
Görüş mesafesi 10 km veya daha fazla

METAR: YGTE 211500Z AUTO 14003KT 9999 // ////// 19/17 Q1017

Saat: 00:57 (15:27 UTC)


TAF: eksik

4.000'den fazla havaalanı için hava durumu gözlemleri ve tahminleri (METAR ve TAF raporları).

Kullanılabilir istasyonlar harita üzerinde sarı ve kırmızı noktalarla gösterilir.

İstasyonun adını görmek için fareyi noktanın üzerinde gezdirin.

Sonrasında hava gözlem ve tahminlerini görmek için tıklayın.

Haritayı değiştirmek için: yaklaştırmak için siyah artı işaretli yeşil düğmeye ve uzaklaştırmak için de eksi işaretli düğmeye hızla tıklayın; bitişik haritalar için yeşil okları kullanın.


METAR-TAF: